Terminal Aerodrome Forecast
Issued by NWS Grand Forks, ND

Home | Current Version | Previous Version | Graphics & Text | Print | Product List | Glossary On
Versions: 1 2 3 4 5 6 7 8 9 10 11 12 13 14 15 16 17 18
000
FTUS43 KFGF 020520
TAFGFK
TAF
KGFK 020520Z 0206/0306 21006KT 6SM HZ SCT250
     FM021500 19080KT P6SM BKN200=

USA.gov is the U.S. government's official web portal to all federal, state and local government web resources and services.